Time;durP1;ratioP1;P1;durP2;ratioP2;P2;SDS_P1;SDS_P2;PMS_P1;PMS_P2;Temp;Humidity;BMP_temperature;BMP_pressure;BME280_temperature;BME280_humidity;BME280_pressure;Samples;Min_cycle;Max_cycle;Signal;HPM_P1;HPM_P2
2022/04/21 00:00:08;;;;;;;107.82;58.55;;;;;;;;;;5076059;28;20067;-42
2022/04/21 00:02:34;;;;;;;67.88;40.65;;;;;;;;;;5076178;28;20028;-43
2022/04/21 00:05:00;;;;;;;45.08;28.35;;;;;;;;;;5076123;28;20395;-43
2022/04/21 00:07:26;;;;;;;53.80;32.63;;;;;;;;;;5076199;28;20024;-42
2022/04/21 00:09:52;;;;;;;52.78;31.15;;;;;;;;;;5076001;28;20047;-42
2022/04/21 00:12:19;;;;;;;66.85;38.00;;;;;;;;;;5076070;28;20105;-42
2022/04/21 00:14:45;;;;;;;80.20;43.78;;;;;;;;;;5075794;28;20020;-41
2022/04/21 00:17:11;;;;;;;64.78;37.25;;;;;;;;;;5075668;28;20069;-41
2022/04/21 00:19:38;;;;;;;52.08;32.20;;;;;;;;;;5075893;28;20024;-41
2022/04/21 00:24:50;;;;;;;48.55;30.77;;;;;;;;;;5076168;28;20519;-42
2022/04/21 00:27:16;;;;;;;51.08;31.67;;;;;;;;;;5075665;28;20029;-40
2022/04/21 00:29:43;;;;;;;44.42;28.17;;;;;;;;;;5075494;28;20036;-39
2022/04/21 00:32:09;;;;;;;58.50;35.15;;;;;;;;;;5075575;28;20028;-43
2022/04/21 00:34:37;;;;;;;43.83;28.30;;;;;;;;;;5075748;28;20051;-42
2022/04/21 00:37:03;;;;;;;55.53;32.17;;;;;;;;;;5075534;28;20532;-39
2022/04/21 00:39:32;;;;;;;47.00;28.60;;;;;;;;;;5075462;28;20024;-39
2022/04/21 00:41:59;;;;;;;47.38;28.33;;;;;;;;;;5075308;28;20056;-40
2022/04/21 00:44:29;;;;;;;47.30;31.13;;;;;;;;;;5075473;28;20120;-40
2022/04/21 00:46:56;;;;;;;37.13;24.63;;;;;;;;;;5075274;28;20048;-40
2022/04/21 00:49:22;;;;;;;61.83;38.20;;;;;;;;;;5075015;28;20052;-42
2022/04/21 00:51:51;;;;;;;51.15;32.03;;;;;;;;;;5075304;28;20052;-42
2022/04/21 00:54:18;;;;;;;45.90;29.20;;;;;;;;;;5075206;28;20046;-42
2022/04/21 00:56:45;;;;;;;43.17;29.20;;;;;;;;;;5075182;28;20384;-42
2022/04/21 00:59:11;;;;;;;38.97;26.33;;;;;;;;;;5074939;28;20455;-42
2022/04/21 01:04:25;;;;;;;35.85;22.50;;;;;;;;;;5034814;28;20061;-41
2022/04/21 01:06:52;;;;;;;45.97;28.00;;;;;;;;;;5032890;28;20053;-42
2022/04/21 01:09:19;;;;;;;39.53;24.92;;;;;;;;;;5032920;28;20045;-40
2022/04/21 01:11:49;;;;;;;39.13;25.15;;;;;;;;;;5032715;28;20022;-42
2022/04/21 01:14:15;;;;;;;38.83;25.52;;;;;;;;;;5032862;28;20029;-42
2022/04/21 01:16:41;;;;;;;35.70;24.23;;;;;;;;;;5032816;28;20029;-44
2022/04/21 01:19:07;;;;;;;36.13;23.27;;;;;;;;;;5032804;28;20075;-43
2022/04/21 01:21:33;;;;;;;33.72;23.38;;;;;;;;;;5032656;28;20421;-42
2022/04/21 01:24:00;;;;;;;38.22;24.67;;;;;;;;;;5032563;28;20477;-42
2022/04/21 01:26:36;;;;;;;37.67;23.58;;;;;;;;;;5032595;28;20416;-40
2022/04/21 01:29:05;;;;;;;32.85;21.88;;;;;;;;;;5032463;28;20402;-40
2022/04/21 01:31:31;;;;;;;40.03;24.88;;;;;;;;;;5032449;28;20033;-39
2022/04/21 01:33:58;;;;;;;35.72;24.33;;;;;;;;;;5032235;28;20040;-42
2022/04/21 01:36:24;;;;;;;34.97;24.08;;;;;;;;;;5032262;28;20358;-39
2022/04/21 01:41:35;;;;;;;37.38;24.13;;;;;;;;;;5033621;28;20041;-42
2022/04/21 01:44:04;;;;;;;38.30;24.92;;;;;;;;;;5034328;28;20056;-42
2022/04/21 01:46:30;;;;;;;38.13;25.95;;;;;;;;;;5034374;28;20039;-42
2022/04/21 01:48:56;;;;;;;36.10;24.67;;;;;;;;;;5033945;28;20042;-42
2022/04/21 01:51:22;;;;;;;38.97;24.17;;;;;;;;;;5034180;28;20025;-42
2022/04/21 01:53:48;;;;;;;36.80;24.10;;;;;;;;;;5034325;28;20059;-41
2022/04/21 01:56:15;;;;;;;43.15;26.90;;;;;;;;;;5034076;28;20026;-42
2022/04/21 01:58:41;;;;;;;37.50;24.35;;;;;;;;;;5033926;28;20425;-42
2022/04/21 02:01:07;;;;;;;33.38;22.27;;;;;;;;;;5033480;28;20032;-41
2022/04/21 02:03:33;;;;;;;38.53;25.67;;;;;;;;;;5033833;28;20040;-43
2022/04/21 02:06:00;;;;;;;38.88;24.88;;;;;;;;;;5033906;28;20028;-42
2022/04/21 02:08:29;;;;;;;34.45;22.85;;;;;;;;;;5033748;28;20033;-42
2022/04/21 02:10:55;;;;;;;31.38;21.95;;;;;;;;;;5034044;28;20362;-40
2022/04/21 02:13:21;;;;;;;34.15;23.98;;;;;;;;;;5033996;28;20193;-39
2022/04/21 02:15:48;;;;;;;33.95;22.65;;;;;;;;;;5033881;28;20557;-39
2022/04/21 02:18:14;;;;;;;37.20;22.85;;;;;;;;;;5033672;28;20052;-42
2022/04/21 02:20:40;;;;;;;33.60;22.83;;;;;;;;;;5033686;28;20026;-40
2022/04/21 02:23:06;;;;;;;36.72;23.90;;;;;;;;;;5033498;28;20030;-42
2022/04/21 02:25:32;;;;;;;37.55;24.58;;;;;;;;;;5033775;28;20034;-39
2022/04/21 02:27:58;;;;;;;43.05;27.88;;;;;;;;;;5033361;28;20461;-41
2022/04/21 02:30:24;;;;;;;34.40;23.88;;;;;;;;;;5033632;28;20055;-39
2022/04/21 02:32:51;;;;;;;39.53;26.13;;;;;;;;;;5033497;28;20029;-39
2022/04/21 02:35:17;;;;;;;37.92;25.58;;;;;;;;;;5033444;28;20030;-41
2022/04/21 02:37:44;;;;;;;44.40;27.17;;;;;;;;;;5033469;28;20105;-41
2022/04/21 02:40:10;;;;;;;36.67;24.60;;;;;;;;;;5033625;28;20397;-41
2022/04/21 02:42:40;;;;;;;39.03;26.70;;;;;;;;;;5033280;28;20049;-39
2022/04/21 02:45:07;;;;;;;39.28;26.58;;;;;;;;;;5033422;28;20029;-42
2022/04/21 02:47:35;;;;;;;38.67;26.45;;;;;;;;;;5033399;28;20033;-42
2022/04/21 02:50:01;;;;;;;40.80;26.08;;;;;;;;;;5033169;28;20061;-43
2022/04/21 02:52:28;;;;;;;41.33;26.17;;;;;;;;;;5033296;28;20029;-41
2022/04/21 02:57:38;;;;;;;44.03;28.10;;;;;;;;;;5033642;28;20040;-42
2022/04/21 03:00:06;;;;;;;42.55;27.85;;;;;;;;;;5032999;28;20103;-42
2022/04/21 03:02:32;;;;;;;45.05;28.40;;;;;;;;;;5033103;28;20018;-41
2022/04/21 03:04:58;;;;;;;48.75;27.63;;;;;;;;;;5033096;28;20113;-40
2022/04/21 03:07:27;;;;;;;38.25;26.17;;;;;;;;;;5033149;28;20033;-41
2022/04/21 03:09:53;;;;;;;44.08;26.90;;;;;;;;;;5033223;28;20520;-40
2022/04/21 03:12:24;;;;;;;43.72;27.42;;;;;;;;;;5034084;28;20384;-42
2022/04/21 03:14:50;;;;;;;43.80;26.88;;;;;;;;;;5037216;28;20354;-42
2022/04/21 03:17:16;;;;;;;49.03;29.85;;;;;;;;;;5036871;28;20109;-42
2022/04/21 03:19:42;;;;;;;43.50;27.65;;;;;;;;;;5036973;28;20029;-41
2022/04/21 03:25:00;;;;;;;40.42;26.60;;;;;;;;;;5036819;28;20041;-42
2022/04/21 03:27:29;;;;;;;37.85;25.08;;;;;;;;;;5036962;28;20021;-41
2022/04/21 03:29:58;;;;;;;45.00;28.67;;;;;;;;;;5036927;28;20033;-41
2022/04/21 03:32:26;;;;;;;41.55;27.73;;;;;;;;;;5036656;28;20022;-42
2022/04/21 03:34:53;;;;;;;45.42;28.88;;;;;;;;;;5036995;28;20504;-43
2022/04/21 03:37:20;;;;;;;50.13;28.35;;;;;;;;;;5036963;28;20037;-43
2022/04/21 03:39:46;;;;;;;43.15;29.40;;;;;;;;;;5036821;28;20021;-40
2022/04/21 03:42:20;;;;;;;47.80;31.52;;;;;;;;;;5052241;28;20099;-40
2022/04/21 03:44:48;;;;;;;50.50;32.33;;;;;;;;;;5036575;28;20155;-40
2022/04/21 03:47:15;;;;;;;49.03;31.40;;;;;;;;;;5036738;28;20507;-41
2022/04/21 03:49:41;;;;;;;47.33;31.23;;;;;;;;;;5036196;28;20056;-41
2022/04/21 03:52:10;;;;;;;45.60;29.02;;;;;;;;;;5036581;28;20092;-40
2022/04/21 03:54:36;;;;;;;46.75;28.77;;;;;;;;;;5036433;28;20026;-40
2022/04/21 03:57:02;;;;;;;45.65;29.15;;;;;;;;;;5036333;28;20064;-40
2022/04/21 03:59:28;;;;;;;48.13;29.42;;;;;;;;;;5036098;28;20630;-40
2022/04/21 04:02:02;;;;;;;40.97;26.83;;;;;;;;;;5036302;28;20029;-41
2022/04/21 04:04:28;;;;;;;45.38;27.60;;;;;;;;;;5036000;28;20041;-40
2022/04/21 04:12:23;;;;;;;63.40;32.10;;;;;;;;;;5036416;28;20040;-40
2022/04/21 04:14:49;;;;;;;59.72;32.17;;;;;;;;;;5036237;28;20025;-41
2022/04/21 04:17:15;;;;;;;51.55;28.67;;;;;;;;;;5036206;28;20037;-41
2022/04/21 04:19:41;;;;;;;70.25;36.83;;;;;;;;;;5035811;28;20071;-42
2022/04/21 04:22:07;;;;;;;72.88;35.53;;;;;;;;;;5036108;28;20032;-43
2022/04/21 04:24:34;;;;;;;73.00;36.95;;;;;;;;;;5035201;28;20080;-42
2022/04/21 04:27:00;;;;;;;75.15;37.40;;;;;;;;;;5035639;28;20017;-43
2022/04/21 04:29:26;;;;;;;70.95;37.63;;;;;;;;;;5035679;28;20197;-40
2022/04/21 04:31:53;;;;;;;49.60;30.98;;;;;;;;;;5035812;28;20080;-43
2022/04/21 04:34:19;;;;;;;51.50;30.35;;;;;;;;;;5035558;28;20465;-42
2022/04/21 04:36:46;;;;;;;50.70;32.13;;;;;;;;;;5035594;28;20018;-39
2022/04/21 04:39:15;;;;;;;51.30;31.10;;;;;;;;;;5051086;28;20029;-41
2022/04/21 04:44:29;;;;;;;39.95;26.35;;;;;;;;;;5035669;28;20191;-38
2022/04/21 04:46:58;;;;;;;44.88;26.63;;;;;;;;;;5035470;28;20091;-39
2022/04/21 04:49:24;;;;;;;47.55;28.98;;;;;;;;;;5035270;28;20076;-42
2022/04/21 04:51:50;;;;;;;44.50;26.88;;;;;;;;;;5035345;28;20113;-41
2022/04/21 04:54:17;;;;;;;48.45;30.58;;;;;;;;;;5035202;28;20087;-41
2022/04/21 04:56:47;;;;;;;39.58;27.38;;;;;;;;;;5050197;28;20025;-40
2022/04/21 04:59:13;;;;;;;35.13;23.80;;;;;;;;;;5035154;28;20033;-39
2022/04/21 05:01:41;;;;;;;36.08;23.58;;;;;;;;;;5035320;28;20021;-42
2022/04/21 05:04:07;;;;;;;53.00;33.22;;;;;;;;;;5034049;28;20053;-42
2022/04/21 05:06:38;;;;;;;31.23;21.73;;;;;;;;;;5035329;28;20052;-43
2022/04/21 05:09:05;;;;;;;62.92;39.20;;;;;;;;;;5035045;28;20026;-40
2022/04/21 05:11:31;;;;;;;35.55;22.80;;;;;;;;;;5035036;28;20159;-43
2022/04/21 05:13:58;;;;;;;41.58;27.73;;;;;;;;;;5035156;28;20017;-41
2022/04/21 05:16:24;;;;;;;32.70;24.17;;;;;;;;;;5050205;28;20028;-49
2022/04/21 05:18:50;;;;;;;30.50;23.00;;;;;;;;;;5034697;28;20060;-42
2022/04/21 05:21:17;;;;;;;34.75;22.83;;;;;;;;;;5034756;28;20386;-43
2022/04/21 05:23:45;;;;;;;33.40;22.05;;;;;;;;;;5034422;28;20038;-44
2022/04/21 05:26:11;;;;;;;37.55;22.77;;;;;;;;;;5034848;28;20381;-42
2022/04/21 05:28:37;;;;;;;36.15;22.00;;;;;;;;;;5034378;28;20030;-41
2022/04/21 05:31:03;;;;;;;37.03;23.42;;;;;;;;;;5034612;28;20147;-44
2022/04/21 05:33:30;;;;;;;36.45;25.40;;;;;;;;;;5034465;28;20485;-43
2022/04/21 05:36:00;;;;;;;32.15;19.88;;;;;;;;;;5033606;28;20032;-43
2022/04/21 05:38:27;;;;;;;29.98;21.83;;;;;;;;;;5034403;28;20099;-45
2022/04/21 05:40:54;;;;;;;24.13;18.40;;;;;;;;;;5034715;28;20388;-42
2022/04/21 05:43:21;;;;;;;24.95;17.85;;;;;;;;;;5034463;28;20049;-43
2022/04/21 05:45:47;;;;;;;27.77;20.08;;;;;;;;;;5034390;28;20021;-42
2022/04/21 05:48:16;;;;;;;34.63;22.98;;;;;;;;;;5034345;28;20108;-43
2022/04/21 05:50:48;;;;;;;26.45;18.77;;;;;;;;;;5034204;28;20037;-42
2022/04/21 05:53:21;;;;;;;28.50;20.60;;;;;;;;;;5034485;28;20365;-41
2022/04/21 05:55:47;;;;;;;30.98;23.80;;;;;;;;;;5034350;28;20021;-42
2022/04/21 05:58:13;;;;;;;27.40;20.10;;;;;;;;;;5034235;28;20030;-42
2022/04/21 06:00:39;;;;;;;28.13;19.00;;;;;;;;;;5034028;28;20032;-42
2022/04/21 06:03:05;;;;;;;25.88;19.45;;;;;;;;;;5033914;28;20025;-41
2022/04/21 06:05:32;;;;;;;28.58;20.25;;;;;;;;;;5033689;28;20028;-44
2022/04/21 06:07:58;;;;;;;26.85;19.70;;;;;;;;;;5034133;28;20029;-43
2022/04/21 06:10:24;;;;;;;26.35;18.67;;;;;;;;;;5034022;28;20029;-43
2022/04/21 06:12:50;;;;;;;24.85;18.52;;;;;;;;;;5033878;28;20021;-43
2022/04/21 06:15:17;;;;;;;25.83;18.80;;;;;;;;;;5033992;28;20545;-43
2022/04/21 06:17:43;;;;;;;29.80;20.60;;;;;;;;;;5033749;28;20021;-42
2022/04/21 06:20:10;;;;;;;28.10;19.67;;;;;;;;;;5033575;28;20544;-42
2022/04/21 06:22:36;;;;;;;27.55;18.48;;;;;;;;;;5033575;28;20039;-42
2022/04/21 06:25:05;;;;;;;26.60;18.42;;;;;;;;;;5033796;28;20397;-42
2022/04/21 06:27:31;;;;;;;24.63;18.25;;;;;;;;;;5033612;28;20041;-43
2022/04/21 06:29:59;;;;;;;25.40;18.73;;;;;;;;;;5033385;28;20029;-42
2022/04/21 06:32:27;;;;;;;26.55;18.27;;;;;;;;;;5041731;28;20033;-43
2022/04/21 06:34:56;;;;;;;47.58;29.13;;;;;;;;;;5052801;28;20369;-42
2022/04/21 06:37:22;;;;;;;33.83;19.55;;;;;;;;;;5052877;28;20079;-42
2022/04/21 06:39:48;;;;;;;44.20;28.67;;;;;;;;;;5052775;28;20029;-42
2022/04/21 06:42:14;;;;;;;52.63;31.88;;;;;;;;;;5052958;28;20021;-40
2022/04/21 06:50:15;;;;;;;32.28;21.17;;;;;;;;;;5032023;28;20052;-43
2022/04/21 06:52:42;;;;;;;34.35;21.80;;;;;;;;;;5050846;28;20063;-42
2022/04/21 06:55:08;;;;;;;38.58;24.98;;;;;;;;;;5051270;28;20024;-40
2022/04/21 06:57:34;;;;;;;45.63;32.22;;;;;;;;;;5053136;28;20457;-41
2022/04/21 07:00:00;;;;;;;34.90;24.20;;;;;;;;;;5053412;28;20047;-38
2022/04/21 07:02:27;;;;;;;27.55;15.93;;;;;;;;;;5053038;28;20021;-40
2022/04/21 07:04:53;;;;;;;23.67;17.23;;;;;;;;;;5053107;28;20485;-41
2022/04/21 07:07:19;;;;;;;22.35;16.60;;;;;;;;;;5053026;28;20028;-40
2022/04/21 07:09:48;;;;;;;31.30;20.60;;;;;;;;;;5052545;28;20025;-40
2022/04/21 07:12:15;;;;;;;21.08;15.43;;;;;;;;;;5052409;28;20025;-41
2022/04/21 07:14:41;;;;;;;52.72;31.48;;;;;;;;;;5052396;28;20028;-42
2022/04/21 07:17:07;;;;;;;27.63;18.90;;;;;;;;;;5052027;28;20029;-40
2022/04/21 07:19:34;;;;;;;19.98;14.45;;;;;;;;;;5051470;28;20031;-40
2022/04/21 07:22:00;;;;;;;26.20;18.05;;;;;;;;;;5051481;28;20018;-41
2022/04/21 07:24:26;;;;;;;22.13;13.95;;;;;;;;;;5051092;28;20060;-39
2022/04/21 07:26:53;;;;;;;22.80;15.07;;;;;;;;;;5052439;28;20524;-41
2022/04/21 07:29:19;;;;;;;21.65;14.43;;;;;;;;;;5053221;28;20033;-42
2022/04/21 07:31:45;;;;;;;23.40;15.85;;;;;;;;;;5052750;28;20028;-42
2022/04/21 07:34:11;;;;;;;41.25;24.75;;;;;;;;;;5052774;28;20116;-43
2022/04/21 07:36:37;;;;;;;22.15;15.52;;;;;;;;;;5052882;28;20029;-43
2022/04/21 07:39:04;;;;;;;25.40;16.63;;;;;;;;;;5052251;28;20032;-40
2022/04/21 07:41:30;;;;;;;20.13;13.85;;;;;;;;;;5052130;28;20025;-41
2022/04/21 07:43:56;;;;;;;18.88;13.20;;;;;;;;;;5052144;28;20033;-42
2022/04/21 07:46:22;;;;;;;27.38;18.30;;;;;;;;;;5052113;28;20083;-41
2022/04/21 07:51:33;;;;;;;20.80;13.02;;;;;;;;;;5051017;28;20514;-39
2022/04/21 07:53:59;;;;;;;34.08;20.02;;;;;;;;;;5051953;28;20095;-38
2022/04/21 07:56:25;;;;;;;37.95;23.42;;;;;;;;;;5051187;28;20025;-41
2022/04/21 07:58:51;;;;;;;32.53;21.30;;;;;;;;;;5053514;28;20037;-40
2022/04/21 08:01:17;;;;;;;32.70;20.95;;;;;;;;;;5054809;28;20029;-41
2022/04/21 08:03:44;;;;;;;23.85;15.95;;;;;;;;;;5055561;28;20032;-41
2022/04/21 08:06:12;;;;;;;24.75;16.60;;;;;;;;;;5054727;28;20024;-40
2022/04/21 08:08:40;;;;;;;20.73;12.95;;;;;;;;;;5054848;28;20040;-40
2022/04/21 08:11:07;;;;;;;17.73;11.82;;;;;;;;;;5054644;28;20025;-39
2022/04/21 08:13:36;;;;;;;20.00;12.48;;;;;;;;;;5054554;28;20021;-40
2022/04/21 08:16:02;;;;;;;18.20;12.85;;;;;;;;;;5055104;28;20033;-40
2022/04/21 08:18:28;;;;;;;13.57;10.73;;;;;;;;;;5054381;28;20024;-40
2022/04/21 08:20:58;;;;;;;12.00;8.25;;;;;;;;;;5054901;28;20040;-40
2022/04/21 08:23:27;;;;;;;13.65;8.77;;;;;;;;;;5055565;28;20104;-40
2022/04/21 08:34:24;;;;;;;11.40;7.97;;;;;;;;;;5049586;28;20040;-40
2022/04/21 08:36:51;;;;;;;9.75;7.80;;;;;;;;;;5049071;28;20033;-41
2022/04/21 08:39:17;;;;;;;9.13;7.03;;;;;;;;;;5041901;28;20444;-42
2022/04/21 08:41:50;;;;;;;10.50;7.63;;;;;;;;;;5043914;28;20362;-41
2022/04/21 08:44:19;;;;;;;9.25;7.70;;;;;;;;;;5043251;28;20041;-41
2022/04/21 08:46:47;;;;;;;12.85;8.57;;;;;;;;;;5039165;28;20034;-40
2022/04/21 08:49:14;;;;;;;11.20;7.13;;;;;;;;;;5038118;28;20135;-41
2022/04/21 08:51:41;;;;;;;10.57;8.07;;;;;;;;;;5026174;28;20136;-42
2022/04/21 08:54:10;;;;;;;10.63;8.25;;;;;;;;;;5041914;28;20034;-42
2022/04/21 08:56:36;;;;;;;12.65;8.13;;;;;;;;;;5041579;28;20022;-40
2022/04/21 08:59:02;;;;;;;9.88;7.28;;;;;;;;;;5043114;28;20587;-40
2022/04/21 09:01:28;;;;;;;10.57;7.72;;;;;;;;;;5042735;28;20096;-42
2022/04/21 09:03:54;;;;;;;13.60;8.95;;;;;;;;;;5041305;28;20025;-42
2022/04/21 09:06:22;;;;;;;13.77;8.65;;;;;;;;;;5051075;28;20104;-41
2022/04/21 09:09:16;;;;;;;9.00;7.75;;;;;;;;;;5054496;28;20036;-41
2022/04/21 09:11:45;;;;;;;9.32;7.40;;;;;;;;;;5052133;28;20074;-43
2022/04/21 09:14:16;;;;;;;11.10;7.05;;;;;;;;;;5054104;28;20051;-44
2022/04/21 09:16:42;;;;;;;10.60;7.10;;;;;;;;;;5054199;28;20392;-42
2022/04/21 09:19:08;;;;;;;12.15;7.57;;;;;;;;;;5054082;28;20025;-43
2022/04/21 09:21:38;;;;;;;9.68;6.03;;;;;;;;;;5054357;28;20365;-41
2022/04/21 09:24:23;;;;;;;9.45;6.53;;;;;;;;;;5054265;28;20075;-43
2022/04/21 09:26:50;;;;;;;10.82;6.68;;;;;;;;;;5051793;28;20075;-44
2022/04/21 09:29:32;;;;;;;9.50;6.00;;;;;;;;;;5054054;28;20083;-42
2022/04/21 09:32:04;;;;;;;15.73;5.70;;;;;;;;;;5053219;28;20063;-42
2022/04/21 09:34:33;;;;;;;8.05;5.78;;;;;;;;;;5052214;28;20014;-41
2022/04/21 09:36:59;;;;;;;6.55;5.03;;;;;;;;;;5053927;28;20025;-44
2022/04/21 09:39:27;;;;;;;6.53;5.25;;;;;;;;;;5051073;28;20025;-43
2022/04/21 09:41:54;;;;;;;12.68;6.72;;;;;;;;;;5051353;28;20369;-42
2022/04/21 09:47:07;;;;;;;10.43;6.20;;;;;;;;;;5042492;28;20033;-45
2022/04/21 09:49:36;;;;;;;10.15;6.13;;;;;;;;;;5040395;28;20045;-40
2022/04/21 09:52:02;;;;;;;8.77;6.07;;;;;;;;;;5042585;28;20030;-40
2022/04/21 09:54:31;;;;;;;6.63;5.20;;;;;;;;;;5041187;28;20040;-41
2022/04/21 09:56:58;;;;;;;8.57;6.22;;;;;;;;;;5042424;28;20125;-40
2022/04/21 09:59:24;;;;;;;9.43;5.97;;;;;;;;;;5040351;28;20048;-41
2022/04/21 10:01:50;;;;;;;7.50;5.63;;;;;;;;;;5040004;28;20432;-40
2022/04/21 10:04:19;;;;;;;6.50;5.45;;;;;;;;;;5040829;28;20099;-42
2022/04/21 10:06:46;;;;;;;7.38;5.38;;;;;;;;;;5044094;28;20070;-39
2022/04/21 10:09:13;;;;;;;6.45;5.38;;;;;;;;;;5042813;28;20498;-39
2022/04/21 10:11:42;;;;;;;9.13;5.55;;;;;;;;;;5036759;28;20041;-39
2022/04/21 10:14:12;;;;;;;5.88;4.88;;;;;;;;;;5039970;28;20044;-39
2022/04/21 10:16:39;;;;;;;9.35;5.78;;;;;;;;;;5041277;28;20037;-38
2022/04/21 10:19:05;;;;;;;11.65;5.88;;;;;;;;;;5034739;28;20141;-39
2022/04/21 10:21:39;;;;;;;6.38;4.78;;;;;;;;;;5036282;28;20052;-39
2022/04/21 10:24:06;;;;;;;6.82;4.57;;;;;;;;;;5027834;28;20054;-43
2022/04/21 10:26:39;;;;;;;5.57;4.47;;;;;;;;;;5021541;28;20025;-41
2022/04/21 10:29:17;;;;;;;6.32;5.13;;;;;;;;;;5021226;28;20033;-39
2022/04/21 10:31:46;;;;;;;6.35;4.50;;;;;;;;;;5022062;28;20033;-41
2022/04/21 10:34:27;;;;;;;4.97;4.43;;;;;;;;;;5021086;28;20025;-44
2022/04/21 10:36:53;;;;;;;;;;;;;;;;;;5021542;28;20072;-45
2022/04/21 10:39:19;;;;;;;5.65;4.55;;;;;;;;;;5021588;28;20400;-43
2022/04/21 10:41:48;;;;;;;6.65;4.47;;;;;;;;;;5022230;28;20036;-41
2022/04/21 10:44:15;;;;;;;7.20;4.88;;;;;;;;;;5020834;28;20091;-42
2022/04/21 10:46:41;;;;;;;5.88;4.55;;;;;;;;;;5021215;28;20025;-42
2022/04/21 10:49:09;;;;;;;4.82;4.20;;;;;;;;;;5020873;28;20179;-43
2022/04/21 10:57:12;;;;;;;4.72;4.10;;;;;;;;;;5019903;28;20053;-40
2022/04/21 10:57:36;;;;;;;4.68;4.18;;;;;;;;;;5020737;28;20099;-41
2022/04/21 11:00:03;;;;;;;7.00;4.70;;;;;;;;;;5020824;28;20038;-43
2022/04/21 11:02:40;;;;;;;4.57;4.07;;;;;;;;;;5020639;28;20116;-42
2022/04/21 11:05:26;;;;;;;5.68;4.20;;;;;;;;;;5020443;28;20041;-42
2022/04/21 11:07:55;;;;;;;5.47;4.07;;;;;;;;;;5021250;28;20029;-41
2022/04/21 11:10:31;;;;;;;6.32;5.07;;;;;;;;;;5022536;28;20032;-39
2022/04/21 11:12:57;;;;;;;6.25;4.68;;;;;;;;;;5022271;28;20239;-40
2022/04/21 11:15:37;;;;;;;12.57;8.48;;;;;;;;;;5021389;28;20511;-45
2022/04/21 11:18:10;;;;;;;13.85;8.18;;;;;;;;;;5022659;28;20093;-43
2022/04/21 11:20:44;;;;;;;12.65;7.53;;;;;;;;;;5020961;28;20029;-42
2022/04/21 11:23:23;;;;;;;11.02;5.65;;;;;;;;;;5020625;28;20037;-42
2022/04/21 11:25:50;;;;;;;21.52;9.15;;;;;;;;;;5021214;28;20814;-43
2022/04/21 11:28:26;;;;;;;5.80;4.18;;;;;;;;;;5020720;28;20132;-43
2022/04/21 11:30:57;;;;;;;7.90;4.55;;;;;;;;;;5021211;28;20136;-41
2022/04/21 11:33:23;;;;;;;11.88;6.70;;;;;;;;;;5021469;28;20129;-42
2022/04/21 11:35:49;;;;;;;4.95;3.20;;;;;;;;;;5024310;28;20029;-44
2022/04/21 11:38:15;;;;;;;5.43;3.75;;;;;;;;;;5024591;28;20026;-42
2022/04/21 11:40:41;;;;;;;8.07;3.17;;;;;;;;;;5024482;28;20017;-42
2022/04/21 11:43:16;;;;;;;7.45;4.03;;;;;;;;;;5025353;28;20037;-42
2022/04/21 11:45:54;;;;;;;3.97;3.28;;;;;;;;;;5024087;28;20033;-44
2022/04/21 11:48:20;;;;;;;8.02;4.00;;;;;;;;;;5025620;28;20782;-42
2022/04/21 11:50:50;;;;;;;10.27;4.70;;;;;;;;;;5024097;28;20044;-48
2022/04/21 11:53:21;;;;;;;8.35;4.40;;;;;;;;;;5024020;28;20088;-42
2022/04/21 11:55:50;;;;;;;11.40;6.72;;;;;;;;;;5024927;28;20030;-40
2022/04/21 11:58:30;;;;;;;14.15;9.50;;;;;;;;;;5025274;28;20434;-42
2022/04/21 12:06:39;;;;;;;15.20;8.65;;;;;;;;;;5024948;28;20853;-42
2022/04/21 12:09:06;;;;;;;36.40;19.02;;;;;;;;;;5025031;28;20025;-38
2022/04/21 12:11:33;;;;;;;15.70;10.10;;;;;;;;;;5023612;28;20119;-43
2022/04/21 12:13:59;;;;;;;26.73;17.20;;;;;;;;;;5023849;28;20308;-43
2022/04/21 12:16:42;;;;;;;16.08;10.02;;;;;;;;;;5023643;28;20128;-42
2022/04/21 12:19:21;;;;;;;9.05;6.60;;;;;;;;;;5023356;28;20066;-41
2022/04/21 12:22:02;;;;;;;7.07;5.40;;;;;;;;;;5024444;28;20036;-40
2022/04/21 12:24:30;;;;;;;6.10;4.55;;;;;;;;;;5023921;28;20025;-42
2022/04/21 12:26:56;;;;;;;21.00;12.23;;;;;;;;;;5022963;28;20111;-42
2022/04/21 12:29:23;;;;;;;19.65;11.52;;;;;;;;;;5023619;28;20033;-42
2022/04/21 12:31:53;;;;;;;12.70;8.50;;;;;;;;;;5023039;28;20032;-43
2022/04/21 12:34:23;;;;;;;4.65;3.45;;;;;;;;;;5022976;28;20083;-40
2022/04/21 12:36:52;;;;;;;5.72;4.47;;;;;;;;;;5023323;28;20064;-46
2022/04/21 12:39:19;;;;;;;7.43;4.47;;;;;;;;;;5023145;28;20017;-41
2022/04/21 12:41:46;;;;;;;5.55;3.80;;;;;;;;;;5023370;28;20077;-42
2022/04/21 12:44:12;;;;;;;5.65;4.80;;;;;;;;;;5022358;28;20446;-39
2022/04/21 12:46:41;;;;;;;5.05;3.58;;;;;;;;;;5022956;28;20040;-42
2022/04/21 12:49:07;;;;;;;7.32;4.68;;;;;;;;;;5024213;28;20118;-42
2022/04/21 12:51:34;;;;;;;9.30;6.50;;;;;;;;;;5023049;28;20041;-45
2022/04/21 12:54:00;;;;;;;8.45;5.00;;;;;;;;;;5022869;28;20021;-41
2022/04/21 12:56:33;;;;;;;6.93;3.80;;;;;;;;;;5023152;28;20493;-43
2022/04/21 12:59:00;;;;;;;9.23;6.65;;;;;;;;;;5024263;28;20037;-43
2022/04/21 13:01:26;;;;;;;8.40;5.28;;;;;;;;;;5023639;28;20028;-46
2022/04/21 13:03:52;;;;;;;15.00;9.65;;;;;;;;;;5022961;28;20365;-42
2022/04/21 13:06:28;;;;;;;17.23;9.63;;;;;;;;;;5022881;28;20042;-42
2022/04/21 13:08:57;;;;;;;13.00;6.95;;;;;;;;;;5022517;28;20132;-39
2022/04/21 13:11:24;;;;;;;20.73;13.57;;;;;;;;;;5022784;28;20021;-40
2022/04/21 13:13:51;;;;;;;18.60;11.95;;;;;;;;;;5022537;28;20021;-41
2022/04/21 13:16:18;;;;;;;8.80;5.88;;;;;;;;;;5022186;28;20123;-45
2022/04/21 13:18:45;;;;;;;18.90;10.07;;;;;;;;;;5023044;28;20028;-44
2022/04/21 13:23:56;;;;;;;15.10;9.70;;;;;;;;;;5022556;28;20467;-45
2022/04/21 13:26:28;;;;;;;4.90;4.00;;;;;;;;;;5022226;28;20036;-44
2022/04/21 13:28:54;;;;;;;11.57;7.13;;;;;;;;;;5022068;28;20026;-44
2022/04/21 13:34:09;;;;;;;5.85;4.38;;;;;;;;;;5023508;28;20550;-42
2022/04/21 13:36:37;;;;;;;9.63;6.35;;;;;;;;;;5022089;28;20120;-44
2022/04/21 13:39:03;;;;;;;16.48;9.70;;;;;;;;;;5022996;28;20099;-44
2022/04/21 13:41:29;;;;;;;7.32;5.10;;;;;;;;;;5022661;28;20426;-45
2022/04/21 13:43:55;;;;;;;7.40;4.40;;;;;;;;;;5021983;28;20024;-45
2022/04/21 13:46:21;;;;;;;11.80;6.43;;;;;;;;;;5022282;28;20041;-42
2022/04/21 13:48:47;;;;;;;12.27;7.25;;;;;;;;;;5021821;28;20044;-40
2022/04/21 13:51:15;;;;;;;5.28;3.55;;;;;;;;;;5021693;28;20805;-45
2022/04/21 13:53:43;;;;;;;12.63;6.90;;;;;;;;;;5022142;28;20378;-42
2022/04/21 13:56:09;;;;;;;5.00;4.07;;;;;;;;;;5020944;28;20447;-44
2022/04/21 13:58:35;;;;;;;4.68;3.17;;;;;;;;;;5021620;28;20033;-44
2022/04/21 14:01:03;;;;;;;5.10;3.38;;;;;;;;;;5021774;28;20025;-42
2022/04/21 14:03:36;;;;;;;5.18;3.40;;;;;;;;;;5021620;28;20478;-45
2022/04/21 14:06:09;;;;;;;5.03;3.95;;;;;;;;;;5021945;28;20033;-43
2022/04/21 14:08:36;;;;;;;8.18;4.97;;;;;;;;;;5021791;28;20025;-42
2022/04/21 14:11:03;;;;;;;5.88;4.03;;;;;;;;;;5021131;28;20053;-44
2022/04/21 14:13:29;;;;;;;6.82;4.20;;;;;;;;;;5021304;28;20023;-44
2022/04/21 14:15:55;;;;;;;4.50;3.00;;;;;;;;;;5021397;28;20524;-41
2022/04/21 14:18:21;;;;;;;10.77;5.57;;;;;;;;;;5021335;28;20509;-43
2022/04/21 14:20:47;;;;;;;5.40;4.05;;;;;;;;;;5021326;28;20030;-42
2022/04/21 14:23:15;;;;;;;5.35;3.40;;;;;;;;;;5021229;28;20505;-39
2022/04/21 14:25:41;;;;;;;5.90;4.13;;;;;;;;;;5021385;28;20477;-42
2022/04/21 14:28:10;;;;;;;5.00;3.45;;;;;;;;;;5021605;28;20052;-43
2022/04/21 14:30:38;;;;;;;6.80;4.65;;;;;;;;;;5020274;28;20833;-43
2022/04/21 14:33:04;;;;;;;5.20;3.80;;;;;;;;;;5019937;28;20036;-44
2022/04/21 14:35:30;;;;;;;5.88;3.50;;;;;;;;;;5020735;28;20127;-44
2022/04/21 14:46:11;;;;;;;4.03;3.00;;;;;;;;;;5020931;28;20505;-44
2022/04/21 14:48:37;;;;;;;5.88;4.50;;;;;;;;;;5020695;28;20030;-42
2022/04/21 14:51:04;;;;;;;6.30;4.70;;;;;;;;;;5021082;28;20064;-42
2022/04/21 14:53:33;;;;;;;6.38;4.32;;;;;;;;;;5022330;28;20448;-41
2022/04/21 14:55:59;;;;;;;12.10;5.55;;;;;;;;;;5020795;28;20112;-40
2022/04/21 14:58:25;;;;;;;5.88;3.60;;;;;;;;;;5020663;28;20252;-42
2022/04/21 15:00:51;;;;;;;3.50;2.90;;;;;;;;;;5020865;28;20036;-41
2022/04/21 15:03:17;;;;;;;10.13;7.03;;;;;;;;;;5020725;28;20036;-44
2022/04/21 15:05:43;;;;;;;9.25;6.15;;;;;;;;;;5020572;28;20480;-41
2022/04/21 15:08:10;;;;;;;6.35;4.22;;;;;;;;;;5024465;28;20742;-42
2022/04/21 15:10:39;;;;;;;8.38;4.75;;;;;;;;;;5024313;28;20029;-42
2022/04/21 15:13:10;;;;;;;5.80;2.78;;;;;;;;;;5024876;28;20057;-44
2022/04/21 15:15:36;;;;;;;15.67;8.53;;;;;;;;;;5025884;28;20478;-41
2022/04/21 15:18:06;;;;;;;19.50;12.82;;;;;;;;;;5024736;28;20769;-42
2022/04/21 15:20:33;;;;;;;13.45;8.10;;;;;;;;;;5024758;28;20040;-41
2022/04/21 15:22:59;;;;;;;13.98;5.30;;;;;;;;;;5024881;28;20508;-44
2022/04/21 15:25:29;;;;;;;9.18;5.32;;;;;;;;;;5025578;28;20048;-44
2022/04/21 15:27:57;;;;;;;5.10;4.03;;;;;;;;;;5024247;28;20159;-42
2022/04/21 15:30:25;;;;;;;3.20;2.58;;;;;;;;;;5024457;28;20418;-43
2022/04/21 15:32:52;;;;;;;3.60;2.45;;;;;;;;;;5024415;28;20021;-41